createdAt,value
2019-04-28T00:00:41.625Z,1.70
2019-04-28T00:03:10.853Z,1.50
2019-04-28T00:05:41.409Z,1.47
2019-04-28T00:08:10.892Z,1.80
2019-04-28T00:10:39.576Z,1.70
2019-04-28T00:13:08.053Z,1.97
2019-04-28T00:15:36.749Z,2.13
2019-04-28T00:18:05.225Z,1.50
2019-04-28T00:20:53.826Z,1.80
2019-04-28T00:23:26.674Z,1.20
2019-04-28T00:26:05.360Z,1.53
2019-04-28T00:28:33.779Z,1.67
2019-04-28T00:31:02.581Z,1.60
2019-04-28T00:33:31.473Z,1.43
2019-04-28T00:36:01.571Z,1.60
2019-04-28T00:38:31.633Z,1.67
2019-04-28T00:41:02.270Z,1.27
2019-04-28T00:43:31.799Z,1.63
2019-04-28T00:46:00.989Z,1.23
2019-04-28T00:48:30.930Z,1.60
2019-04-28T00:51:01.675Z,1.50
2019-04-28T00:53:31.049Z,1.37
2019-04-28T00:55:59.548Z,1.37
2019-04-28T00:58:27.982Z,1.30
2019-04-28T01:00:58.048Z,1.60
2019-04-28T01:03:26.483Z,1.50
2019-04-28T01:05:54.930Z,1.20
2019-04-28T01:08:23.348Z,1.53
2019-04-28T01:10:51.819Z,1.10
2019-04-28T01:13:21.442Z,1.37
2019-04-28T01:16:00.923Z,1.67
2019-04-28T01:18:50.200Z,1.40
2019-04-28T01:21:20.331Z,1.20
2019-04-28T01:23:50.140Z,1.40
2019-04-28T01:26:20.028Z,1.60
2019-04-28T01:28:49.684Z,1.20
2019-04-28T01:31:26.000Z,1.20
2019-04-28T01:34:12.031Z,1.43
2019-04-28T01:36:40.527Z,1.40
2019-04-28T01:39:10.075Z,1.07
2019-04-28T01:41:39.726Z,1.10
2019-04-28T01:44:10.258Z,1.40
2019-04-28T01:46:39.929Z,1.10
2019-04-28T01:49:09.622Z,1.23
2019-04-28T01:51:38.246Z,1.37
2019-04-28T01:54:06.676Z,1.43
2019-04-28T01:56:35.103Z,1.50
2019-04-28T01:59:03.608Z,1.70
2019-04-28T02:01:32.048Z,1.23
2019-04-28T02:04:00.466Z,1.47
2019-04-28T02:06:29.959Z,1.10
2019-04-28T02:08:58.578Z,1.60
2019-04-28T02:11:27.040Z,1.33
2019-04-28T02:13:55.476Z,1.40
2019-04-28T02:16:23.914Z,1.40
2019-04-28T02:18:52.326Z,1.67
2019-04-28T02:21:40.386Z,1.40
2019-04-28T02:24:25.408Z,1.20
2019-04-28T02:26:54.014Z,1.30
2019-04-28T02:29:22.433Z,1.60
2019-04-28T02:31:51.179Z,1.63
2019-04-28T02:34:21.166Z,1.77
2019-04-28T02:36:50.608Z,1.83
2019-04-28T02:39:20.739Z,1.50
2019-04-28T02:41:51.130Z,1.80
2019-04-28T02:44:23.655Z,2.00
2019-04-28T02:46:51.293Z,1.40
2019-04-28T02:49:27.343Z,1.50
2019-04-28T02:52:13.856Z,2.17
2019-04-28T02:54:42.520Z,1.60
2019-04-28T02:57:11.161Z,1.33
2019-04-28T02:59:41.005Z,1.50
2019-04-28T03:02:11.475Z,1.97
2019-04-28T03:04:40.980Z,1.57
2019-04-28T03:07:11.492Z,1.47
2019-04-28T03:09:40.609Z,1.33
2019-04-28T03:12:11.286Z,1.40
2019-04-28T03:14:43.384Z,1.67
2019-04-28T03:17:10.944Z,1.63
2019-04-28T03:19:41.671Z,1.50
2019-04-28T03:22:11.538Z,1.40
2019-04-28T03:24:41.321Z,1.70
2019-04-28T03:27:14.415Z,1.70
2019-04-28T03:29:47.352Z,1.30
2019-04-28T03:32:44.657Z,1.90
2019-04-28T03:35:03.133Z,2.13
2019-04-28T03:37:31.562Z,1.90
2019-04-28T03:40:00.687Z,1.80
2019-04-28T03:42:31.402Z,2.43
2019-04-28T03:45:01.835Z,1.90
2019-04-28T03:47:31.295Z,2.10
2019-04-28T03:50:00.291Z,1.90
2019-04-28T03:52:31.600Z,1.87
2019-04-28T03:55:00.576Z,1.90
2019-04-28T03:57:31.448Z,1.80
2019-04-28T04:00:01.509Z,2.00
2019-04-28T04:02:31.192Z,2.00
2019-04-28T04:05:03.397Z,1.90
2019-04-28T04:07:31.076Z,2.40
2019-04-28T04:10:06.924Z,2.23
2019-04-28T04:12:41.161Z,2.07
2019-04-28T04:15:21.321Z,2.57
2019-04-28T04:18:03.526Z,2.27
2019-04-28T04:20:31.952Z,2.63
2019-04-28T04:23:01.411Z,2.10
2019-04-28T04:25:31.345Z,2.20
2019-04-28T04:28:03.504Z,2.23
2019-04-28T04:30:31.110Z,2.33
2019-04-28T04:33:01.182Z,2.43
2019-04-28T04:35:31.609Z,2.20
2019-04-28T04:38:00.681Z,2.43
2019-04-28T04:40:31.845Z,2.40
2019-04-28T04:43:01.684Z,2.10
2019-04-28T04:45:30.594Z,2.23
2019-04-28T04:48:00.599Z,2.37
2019-04-28T04:50:31.287Z,1.83
2019-04-28T04:53:02.216Z,2.40
2019-04-28T04:55:31.630Z,2.23
2019-04-28T04:58:00.745Z,2.20
2019-04-28T05:00:43.603Z,1.93
2019-04-28T05:03:21.220Z,2.17
2019-04-28T05:05:50.233Z,1.97
2019-04-28T05:08:20.310Z,2.03
2019-04-28T05:10:50.312Z,2.43
2019-04-28T05:13:20.102Z,2.37
2019-04-28T05:15:48.754Z,2.37
2019-04-28T05:18:17.156Z,2.10
2019-04-28T05:20:45.584Z,1.63
2019-04-28T05:23:21.860Z,1.70
2019-04-28T05:25:50.280Z,1.57
2019-04-28T05:28:19.760Z,1.53
2019-04-28T05:30:50.128Z,1.60
2019-04-28T05:33:30.391Z,1.70
2019-04-28T05:36:00.303Z,1.63
2019-04-28T05:38:27.736Z,1.90
2019-04-28T05:40:56.169Z,2.03
2019-04-28T05:43:24.590Z,1.67
2019-04-28T05:45:53.123Z,2.03
2019-04-28T05:48:23.254Z,1.67
2019-04-28T05:50:53.327Z,1.50
2019-04-28T05:53:26.096Z,2.20
2019-04-28T05:56:00.054Z,2.53
2019-04-28T05:58:36.295Z,2.03
2019-04-28T06:01:12.170Z,1.70
2019-04-28T06:03:41.253Z,1.83
2019-04-28T06:06:10.363Z,1.67
2019-04-28T06:08:40.817Z,2.20
2019-04-28T06:11:30.765Z,1.80
2019-04-28T06:14:00.054Z,2.20
2019-04-28T06:16:30.517Z,1.97
2019-04-28T06:18:59.974Z,1.73
2019-04-28T06:21:28.712Z,2.20
2019-04-28T06:23:57.784Z,1.83
2019-04-28T06:26:26.214Z,1.77
2019-04-28T06:28:54.706Z,1.90
2019-04-28T06:31:23.195Z,1.73
2019-04-28T06:33:51.721Z,1.70
2019-04-28T06:36:20.199Z,1.80
2019-04-28T06:38:48.623Z,1.50
2019-04-28T06:41:17.060Z,1.53
2019-04-28T06:43:45.634Z,1.90
2019-04-28T06:46:14.130Z,1.80
2019-04-28T06:48:42.521Z,1.70
2019-04-28T06:51:10.997Z,1.67
2019-04-28T06:53:39.457Z,1.77
2019-04-28T06:56:07.916Z,1.60
2019-04-28T06:58:36.349Z,1.80
2019-04-28T07:01:04.774Z,1.40
2019-04-28T07:03:33.209Z,1.70
2019-04-28T07:06:01.632Z,1.23
2019-04-28T07:08:30.110Z,1.27
2019-04-28T07:10:58.581Z,1.50
2019-04-28T07:13:27.024Z,1.50
2019-04-28T07:15:56.079Z,1.33
2019-04-28T07:18:24.512Z,1.30
2019-04-28T07:20:54.601Z,1.57
2019-04-28T07:23:23.133Z,1.20
2019-04-28T07:25:51.573Z,1.30
2019-04-28T07:28:20.034Z,1.47
2019-04-28T07:30:48.579Z,1.10
2019-04-28T07:33:17.503Z,1.30
2019-04-28T07:35:48.665Z,1.40
2019-04-28T07:38:17.107Z,1.77
2019-04-28T07:40:45.520Z,1.93
2019-04-28T07:43:13.978Z,1.70
2019-04-28T07:45:42.382Z,1.60
2019-04-28T07:48:10.892Z,1.73
2019-04-28T07:50:39.321Z,1.50
2019-04-28T07:53:15.142Z,1.53
2019-04-28T07:55:43.566Z,1.30
2019-04-28T07:58:12.019Z,1.60
2019-04-28T08:00:40.502Z,1.63
2019-04-28T08:03:09.494Z,1.50
2019-04-28T08:05:38.000Z,1.60
2019-04-28T08:08:06.434Z,1.40
2019-04-28T08:10:34.859Z,1.20
2019-04-28T08:13:03.307Z,1.40
2019-04-28T08:15:32.271Z,1.40
2019-04-28T08:18:00.714Z,1.40
2019-04-28T08:20:29.132Z,1.30
2019-04-28T08:22:57.674Z,1.40
2019-04-28T08:25:26.139Z,1.27
2019-04-28T08:27:54.659Z,1.33
2019-04-28T08:30:23.083Z,1.20
2019-04-28T08:32:56.235Z,1.07
2019-04-28T08:35:25.104Z,1.23
2019-04-28T08:37:53.615Z,1.43
2019-04-28T08:40:22.119Z,1.40
2019-04-28T08:42:50.615Z,1.10
2019-04-28T08:45:19.056Z,1.30
2019-04-28T08:47:47.478Z,1.10
2019-04-28T08:50:17.469Z,1.33
2019-04-28T08:52:45.918Z,1.20
2019-04-28T08:55:14.536Z,1.40
2019-04-28T08:57:42.949Z,1.00
2019-04-28T09:00:12.981Z,1.10
2019-04-28T09:02:42.689Z,1.20
2019-04-28T09:05:11.270Z,1.60
2019-04-28T09:07:39.703Z,1.40
2019-04-28T09:10:09.141Z,1.23
2019-04-28T09:12:37.553Z,1.30
2019-04-28T09:15:07.659Z,1.90
2019-04-28T09:17:36.086Z,1.60
2019-04-28T09:20:06.556Z,1.43
2019-04-28T09:22:34.976Z,1.63
2019-04-28T09:25:04.084Z,1.97
2019-04-28T09:27:32.510Z,1.90
2019-04-28T09:30:00.969Z,1.30
2019-04-28T09:32:29.427Z,1.70
2019-04-28T09:34:57.873Z,1.83
2019-04-28T09:37:26.298Z,1.70
2019-04-28T09:39:56.404Z,1.60
2019-04-28T09:42:32.456Z,1.67
2019-04-28T09:45:18.039Z,1.37
2019-04-28T09:47:46.456Z,1.67
2019-04-28T09:50:14.975Z,1.70
2019-04-28T09:52:44.337Z,1.90
2019-04-28T09:55:12.998Z,1.80
2019-04-28T09:57:41.424Z,1.70
2019-04-28T10:00:11.298Z,1.97
2019-04-28T10:02:39.742Z,1.70
2019-04-28T10:05:09.784Z,1.50
2019-04-28T10:07:38.262Z,1.00
2019-04-28T10:10:10.691Z,1.30
2019-04-28T10:12:39.128Z,1.10
2019-04-28T10:15:09.526Z,1.10
2019-04-28T10:17:38.280Z,1.03
2019-04-28T10:20:08.435Z,1.30
2019-04-28T10:22:36.930Z,1.80
2019-04-28T10:25:08.750Z,1.30
2019-04-28T10:27:37.168Z,1.87
2019-04-28T10:30:08.951Z,1.50
2019-04-28T10:32:37.415Z,1.40
2019-04-28T10:35:06.895Z,1.10
2019-04-28T10:37:35.296Z,1.47
2019-04-28T10:40:16.286Z,1.67
2019-04-28T10:42:44.717Z,1.40
2019-04-28T10:45:14.873Z,1.40
2019-04-28T10:47:43.285Z,1.40
2019-04-28T10:50:11.846Z,1.17
2019-04-28T10:52:40.275Z,1.10
2019-04-28T10:55:09.173Z,1.00
2019-04-28T10:57:37.638Z,1.43
2019-04-28T11:00:06.992Z,0.87
2019-04-28T11:02:35.417Z,1.17
2019-04-28T11:05:09.219Z,1.00
2019-04-28T11:07:37.772Z,0.80
2019-04-28T11:10:09.475Z,0.80
2019-04-28T11:12:37.891Z,0.90
2019-04-28T11:15:09.490Z,1.50
2019-04-28T11:17:37.950Z,1.10
2019-04-28T11:20:07.109Z,1.10
2019-04-28T11:22:35.587Z,1.20
2019-04-28T11:25:06.156Z,1.20
2019-04-28T11:27:34.674Z,1.00
2019-04-28T11:30:04.270Z,0.80
2019-04-28T11:32:32.716Z,0.60
2019-04-28T11:35:21.460Z,0.57
2019-04-28T11:37:41.936Z,0.70
2019-04-28T11:40:10.511Z,0.73
2019-04-28T11:42:39.027Z,0.60
2019-04-28T11:45:07.881Z,0.73
2019-04-28T11:47:36.322Z,0.77
2019-04-28T11:50:05.282Z,0.83
2019-04-28T11:52:33.746Z,0.70
2019-04-28T11:55:02.163Z,1.00
2019-04-28T11:57:32.380Z,1.20
2019-04-28T12:00:01.689Z,1.70
2019-04-28T12:02:30.380Z,1.20
2019-04-28T12:04:59.406Z,1.80
2019-04-28T12:07:28.194Z,1.60
2019-04-28T12:10:04.778Z,1.47
2019-04-28T12:12:35.883Z,1.70
2019-04-28T12:15:07.036Z,1.40
2019-04-28T12:17:52.289Z,1.00
2019-04-28T12:20:22.522Z,1.27
2019-04-28T12:22:51.009Z,1.00
2019-04-28T12:25:19.467Z,1.10
2019-04-28T12:27:47.902Z,1.70
2019-04-28T12:30:16.928Z,2.97
2019-04-28T12:32:45.511Z,1.20
2019-04-28T12:35:14.077Z,1.90
2019-04-28T12:37:42.534Z,1.40
2019-04-28T12:40:11.383Z,1.10
2019-04-28T12:42:39.998Z,1.00
2019-04-28T12:45:09.001Z,0.80
2019-04-28T12:47:37.423Z,1.40
2019-04-28T12:50:08.634Z,1.93
2019-04-28T12:52:37.164Z,1.20
2019-04-28T12:55:06.788Z,0.90
2019-04-28T12:57:35.263Z,1.27
2019-04-28T13:00:15.518Z,1.10
2019-04-28T13:03:01.547Z,1.57
2019-04-28T13:05:30.651Z,1.60
2019-04-28T13:07:59.084Z,1.23
2019-04-28T13:10:27.537Z,1.20
2019-04-28T13:12:56.280Z,1.20
2019-04-28T13:15:24.826Z,0.93
2019-04-28T13:17:53.261Z,0.90
2019-04-28T13:20:21.774Z,1.00
2019-04-28T13:22:50.203Z,0.93
2019-04-28T13:25:18.620Z,0.90
2019-04-28T13:27:47.111Z,1.00
2019-04-28T13:30:15.690Z,1.10
2019-04-28T13:32:44.189Z,1.13
2019-04-28T13:35:13.979Z,0.87
2019-04-28T13:37:42.422Z,0.50
2019-04-28T13:40:18.531Z,0.90
2019-04-28T13:42:46.993Z,1.00
2019-04-28T13:45:17.198Z,0.80
2019-04-28T13:47:45.712Z,1.00
2019-04-28T13:50:16.805Z,1.00
2019-04-28T13:52:45.242Z,1.00
2019-04-28T13:55:30.490Z,0.80
2019-04-28T13:58:00.613Z,0.97
2019-04-28T14:00:42.803Z,0.97
2019-04-28T14:03:29.414Z,0.63
2019-04-28T14:05:59.588Z,1.00
2019-04-28T14:08:28.160Z,0.70
2019-04-28T14:10:56.636Z,0.90
2019-04-28T14:13:25.077Z,0.80
2019-04-28T14:15:53.506Z,1.10
2019-04-28T14:18:22.017Z,0.82
2019-04-28T14:20:51.040Z,0.80
2019-04-28T14:23:19.477Z,0.90
2019-04-28T14:25:47.899Z,0.80
2019-04-28T14:28:16.382Z,0.90
2019-04-28T14:30:44.875Z,1.00
2019-04-28T14:33:16.348Z,0.73
2019-04-28T14:35:43.551Z,0.70
2019-04-28T14:38:12.032Z,1.00
2019-04-28T14:40:40.477Z,1.02
2019-04-28T14:43:08.913Z,0.75
2019-04-28T14:45:37.338Z,0.65
2019-04-28T14:48:05.797Z,0.53
2019-04-28T14:50:34.253Z,0.57
2019-04-28T14:53:02.768Z,0.43
2019-04-28T14:55:31.269Z,0.47
2019-04-28T14:57:59.714Z,0.60
2019-04-28T15:00:31.889Z,0.57
2019-04-28T15:03:04.915Z,0.50
2019-04-28T15:05:46.891Z,0.47
2019-04-28T15:08:21.350Z,0.50
2019-04-28T15:10:54.466Z,0.60
2019-04-28T15:13:23.540Z,0.60
2019-04-28T15:15:52.546Z,2.30
2019-04-28T15:18:21.094Z,1.20
2019-04-28T15:20:49.592Z,0.90
2019-04-28T15:23:18.084Z,0.30
2019-04-28T15:25:46.530Z,0.47
2019-04-28T15:28:15.018Z,0.40
2019-04-28T15:30:43.490Z,0.30
2019-04-28T15:33:11.936Z,0.37
2019-04-28T15:35:40.407Z,0.30
2019-04-28T15:38:08.836Z,0.50
2019-04-28T15:40:37.289Z,1.17
2019-04-28T15:43:13.469Z,0.50
2019-04-28T15:45:42.142Z,0.80
2019-04-28T15:48:10.562Z,1.27
2019-04-28T15:50:39.018Z,1.60
2019-04-28T15:53:07.496Z,0.80
2019-04-28T15:55:46.621Z,0.60
2019-04-28T15:58:34.784Z,0.50
2019-04-28T16:01:09.242Z,1.00
2019-04-28T16:03:37.687Z,0.40
2019-04-28T16:06:06.123Z,0.50
2019-04-28T16:08:34.639Z,0.47
2019-04-28T16:11:03.148Z,0.47
2019-04-28T16:13:31.590Z,0.80
2019-04-28T16:16:00.031Z,9.80
2019-04-28T16:18:28.541Z,13.17
2019-04-28T16:20:57.007Z,1.40
2019-04-28T16:23:25.427Z,6.47
2019-04-28T16:25:53.860Z,3.50
2019-04-28T16:28:22.289Z,4.87
2019-04-28T16:30:50.725Z,1.30
2019-04-28T16:33:19.228Z,1.00
2019-04-28T16:35:47.726Z,1.37
2019-04-28T16:38:16.133Z,2.43
2019-04-28T16:40:44.577Z,2.00
2019-04-28T16:43:12.987Z,0.67
2019-04-28T16:45:41.434Z,1.30
2019-04-28T16:48:09.876Z,1.37
2019-04-28T16:50:38.301Z,1.20
2019-04-28T16:53:06.731Z,1.20
2019-04-28T16:55:45.441Z,1.63
2019-04-28T16:58:18.301Z,0.70
2019-04-28T17:00:54.463Z,1.10
2019-04-28T17:03:22.948Z,1.50
2019-04-28T17:05:51.378Z,1.20
2019-04-28T17:08:19.789Z,1.40
2019-04-28T17:10:48.241Z,1.10
2019-04-28T17:13:16.645Z,4.40
2019-04-28T17:15:45.153Z,0.77
2019-04-28T17:18:13.744Z,0.80
2019-04-28T17:20:42.332Z,0.73
2019-04-28T17:23:10.764Z,1.27
2019-04-28T17:25:39.202Z,1.03
2019-04-28T17:28:08.586Z,0.90
2019-04-28T17:30:37.082Z,3.30
2019-04-28T17:33:05.535Z,2.90
2019-04-28T17:35:34.005Z,3.03
2019-04-28T17:38:06.738Z,1.77
2019-04-28T17:40:32.787Z,1.00
2019-04-28T17:43:01.231Z,1.30
2019-04-28T17:45:29.667Z,1.00
2019-04-28T17:47:59.755Z,1.13
2019-04-28T17:50:28.526Z,1.10
2019-04-28T17:52:56.961Z,1.13
2019-04-28T17:55:25.393Z,1.63
2019-04-28T17:57:54.181Z,3.30
2019-04-28T18:00:40.560Z,2.80
2019-04-28T18:03:19.518Z,1.57
2019-04-28T18:05:49.672Z,1.20
2019-04-28T18:08:21.094Z,1.70
2019-04-28T18:10:48.274Z,1.53
2019-04-28T18:13:16.790Z,1.30
2019-04-28T18:16:02.379Z,1.20
2019-04-28T18:18:38.358Z,1.83
2019-04-28T18:21:07.535Z,2.17
2019-04-28T18:23:35.989Z,1.47
2019-04-28T18:26:04.498Z,1.53
2019-04-28T18:28:33.902Z,1.30
2019-04-28T18:31:06.893Z,1.57
2019-04-28T18:33:53.391Z,1.40
2019-04-28T18:36:23.450Z,1.40
2019-04-28T18:39:06.578Z,1.63
2019-04-28T18:41:45.473Z,1.70
2019-04-28T18:44:21.593Z,1.63
2019-04-28T18:46:50.021Z,1.83
2019-04-28T18:49:18.479Z,1.40
2019-04-28T18:51:46.898Z,1.57
2019-04-28T18:54:15.851Z,1.63
2019-04-28T18:56:44.316Z,1.80
2019-04-28T18:59:12.746Z,2.30
2019-04-28T19:01:45.722Z,2.00
2019-04-28T19:04:14.151Z,3.30
2019-04-28T19:06:42.636Z,5.27
2019-04-28T19:09:24.616Z,4.07
2019-04-28T19:12:10.986Z,2.63
2019-04-28T19:14:47.145Z,2.80
2019-04-28T19:17:23.004Z,2.00
2019-04-28T19:19:51.459Z,1.80
2019-04-28T19:22:19.883Z,1.67
2019-04-28T19:24:48.395Z,1.80
2019-04-28T19:27:17.409Z,1.67
2019-04-28T19:29:45.860Z,1.80
2019-04-28T19:32:14.277Z,2.20
2019-04-28T19:34:42.722Z,2.20
2019-04-28T19:37:11.136Z,2.23
2019-04-28T19:39:40.965Z,2.80
2019-04-28T19:42:09.511Z,5.37
2019-04-28T19:44:37.943Z,5.27
2019-04-28T19:47:06.432Z,4.40
2019-04-28T19:49:34.865Z,3.43
2019-04-28T19:52:03.309Z,2.70
2019-04-28T19:54:33.381Z,2.97
2019-04-28T19:57:03.647Z,2.67
2019-04-28T19:59:33.703Z,2.90
2019-04-28T20:02:02.339Z,3.10
2019-04-28T20:04:31.798Z,3.83
2019-04-28T20:07:00.213Z,3.70
2019-04-28T20:09:28.662Z,2.97
2019-04-28T20:11:57.102Z,3.33
2019-04-28T20:14:25.517Z,2.30
2019-04-28T20:16:53.983Z,3.10
2019-04-28T20:19:22.479Z,2.80
2019-04-28T20:21:50.942Z,2.93
2019-04-28T20:24:19.640Z,3.00
2019-04-28T20:26:48.215Z,3.40
2019-04-28T20:29:16.647Z,2.90
2019-04-28T20:31:45.160Z,2.80
2019-04-28T20:34:13.583Z,2.50
2019-04-28T20:36:52.883Z,2.27
2019-04-28T20:39:22.959Z,2.60
2019-04-28T20:41:51.366Z,2.40
2019-04-28T20:44:19.818Z,2.60
2019-04-28T20:46:48.242Z,2.30
2019-04-28T20:49:16.690Z,2.57
2019-04-28T20:51:45.153Z,3.30
2019-04-28T20:54:13.827Z,5.57
2019-04-28T20:56:42.250Z,5.07
2019-04-28T20:59:10.672Z,4.47
2019-04-28T21:01:39.083Z,4.33
2019-04-28T21:04:07.586Z,4.73
2019-04-28T21:06:36.028Z,6.63
2019-04-28T21:09:09.494Z,6.67
2019-04-28T21:11:37.109Z,5.33
2019-04-28T21:14:05.555Z,4.87
2019-04-28T21:16:33.984Z,4.30
2019-04-28T21:19:02.402Z,4.67
2019-04-28T21:21:30.833Z,4.97
2019-04-28T21:23:59.246Z,3.83
2019-04-28T21:26:27.676Z,3.10
2019-04-28T21:28:56.089Z,3.00
2019-04-28T21:31:24.517Z,2.87
2019-04-28T21:33:52.932Z,3.17
2019-04-28T21:36:21.384Z,2.90
2019-04-28T21:38:50.388Z,4.07
2019-04-28T21:41:18.987Z,3.60
2019-04-28T21:44:04.138Z,3.87
2019-04-28T21:46:34.254Z,3.60
2019-04-28T21:49:04.303Z,3.83
2019-04-28T21:51:32.798Z,3.33
2019-04-28T21:54:01.246Z,3.53
2019-04-28T21:56:29.731Z,3.67
2019-04-28T21:58:58.154Z,3.93
2019-04-28T22:01:27.053Z,3.90
2019-04-28T22:03:55.457Z,4.13
2019-04-28T22:06:23.892Z,4.10
2019-04-28T22:08:52.293Z,4.17
2019-04-28T22:11:20.726Z,5.23
2019-04-28T22:13:49.146Z,4.47
2019-04-28T22:16:17.647Z,4.73
2019-04-28T22:18:46.076Z,4.63
2019-04-28T22:21:14.489Z,4.97
2019-04-28T22:23:56.191Z,4.83
2019-04-28T22:26:40.935Z,4.67
2019-04-28T22:29:09.426Z,4.23
2019-04-28T22:31:37.864Z,4.30
2019-04-28T22:34:06.283Z,4.73
2019-04-28T22:36:34.704Z,5.13
2019-04-28T22:39:03.177Z,4.53
2019-04-28T22:41:31.595Z,4.00
2019-04-28T22:44:00.035Z,3.70
2019-04-28T22:46:28.451Z,3.90
2019-04-28T22:48:58.515Z,4.03
2019-04-28T22:51:26.937Z,4.20
2019-04-28T22:53:55.353Z,4.27
2019-04-28T22:56:25.405Z,4.33
2019-04-28T22:58:55.489Z,4.03
2019-04-28T23:01:28.325Z,3.70
2019-04-28T23:04:10.453Z,4.47
2019-04-28T23:06:38.947Z,4.03
2019-04-28T23:09:09.954Z,4.30
2019-04-28T23:11:38.365Z,4.87
2019-04-28T23:14:06.879Z,5.03
2019-04-28T23:16:35.282Z,4.87
2019-04-28T23:19:05.677Z,4.80
2019-04-28T23:21:38.521Z,4.73
2019-04-28T23:24:06.948Z,4.63
2019-04-28T23:26:36.910Z,4.47
2019-04-28T23:29:05.468Z,4.57
2019-04-28T23:31:33.891Z,4.63
2019-04-28T23:34:02.329Z,3.90
2019-04-28T23:36:30.732Z,4.23
2019-04-28T23:38:59.162Z,4.67
2019-04-28T23:41:31.925Z,4.80
2019-04-28T23:44:00.356Z,4.57
2019-04-28T23:46:47.060Z,4.43
2019-04-28T23:49:15.557Z,4.30
2019-04-28T23:52:01.499Z,4.80
2019-04-28T23:54:29.949Z,4.33
2019-04-28T23:56:58.377Z,4.87
2019-04-28T23:59:26.802Z,4.60
